<?xml version="1.0" encoding="UTF-8" standalone="no" ?>
<gpx xmlns="http://www.topografix.com/GPX/1/1" xmlns:xsi="http://www.w3.org/2001/XMLSchema-instance" xsi:schemaLocation="http://www.topografix.com/GPX/1/1 http://www.topografix.com/GPX/1/1/gpx.xsd" version="1.1" creator="VisuGPX - https://www.visugpx.com">
  <metadata>
    <name>Clermont-Ferrand - Massat - Pau par François</name>
    <desc><![CDATA[Trajet effectué par François sur la "Diagonale du vide" en aout 2020]]></desc>
  </metadata>
  <trk>
    <name><![CDATA[route111]]></name>
    <trkseg>
      <trkpt lat="43.864" lon="3.31783">
        <ele>804.5</ele>
        <time>2020-08-24T07:35:13Z</time>
      </trkpt>
      <trkpt lat="43.86454" lon="3.31666">
        <ele>803.8</ele>
        <time>2020-08-24T07:35:38Z</time>
      </trkpt>
      <trkpt lat="43.86546" lon="3.31622">
        <ele>798.9</ele>
        <time>2020-08-24T07:46:24Z</time>
      </trkpt>
      <trkpt lat="43.86656" lon="3.31585">
        <ele>798.5</ele>
        <time>2020-08-24T07:46:44Z</time>
      </trkpt>
      <trkpt lat="43.86748" lon="3.31551">
        <ele>797.6</ele>
        <time>2020-08-24T07:46:59Z</time>
      </trkpt>
      <trkpt lat="43.86844" lon="3.31518">
        <ele>797.6</ele>
        <time>2020-08-24T07:47:19Z</time>
      </trkpt>
      <trkpt lat="43.86932" lon="3.31465">
        <ele>797.5</ele>
        <time>2020-08-24T07:47:44Z</time>
      </trkpt>
      <trkpt lat="43.8702" lon="3.31408">
        <ele>796.6</ele>
        <time>2020-08-24T07:48:24Z</time>
      </trkpt>
      <trkpt lat="43.87102" lon="3.31355">
        <ele>793.9</ele>
        <time>2020-08-24T07:49:15Z</time>
      </trkpt>
      <trkpt lat="43.87194" lon="3.31312">
        <ele>791.7</ele>
        <time>2020-08-24T07:50:02Z</time>
      </trkpt>
      <trkpt lat="43.87284" lon="3.31344">
        <ele>791</ele>
        <time>2020-08-24T07:50:47Z</time>
      </trkpt>
      <trkpt lat="43.87375" lon="3.31383">
        <ele>791.6</ele>
        <time>2020-08-24T07:51:39Z</time>
      </trkpt>
      <trkpt lat="43.87465" lon="3.31378">
        <ele>793</ele>
        <time>2020-08-24T07:52:24Z</time>
      </trkpt>
      <trkpt lat="43.8755" lon="3.31332">
        <ele>794.1</ele>
        <time>2020-08-24T07:53:14Z</time>
      </trkpt>
      <trkpt lat="43.87637" lon="3.31297">
        <ele>795.2</ele>
        <time>2020-08-24T07:53:59Z</time>
      </trkpt>
      <trkpt lat="43.8773" lon="3.31269">
        <ele>796.3</ele>
        <time>2020-08-24T07:54:44Z</time>
      </trkpt>
      <trkpt lat="43.87824" lon="3.31235">
        <ele>797.2</ele>
        <time>2020-08-24T07:55:24Z</time>
      </trkpt>
      <trkpt lat="43.87919" lon="3.31192">
        <ele>798.1</ele>
        <time>2020-08-24T07:56:04Z</time>
      </trkpt>
      <trkpt lat="43.88009" lon="3.3115">
        <ele>799</ele>
        <time>2020-08-24T07:56:49Z</time>
      </trkpt>
      <trkpt lat="43.88093" lon="3.31107">
        <ele>799.9</ele>
        <time>2020-08-24T07:57:38Z</time>
      </trkpt>
      <trkpt lat="43.88177" lon="3.31032">
        <ele>801.1</ele>
        <time>2020-08-24T07:59:00Z</time>
      </trkpt>
      <trkpt lat="43.88258" lon="3.30976">
        <ele>802.1</ele>
        <time>2020-08-24T07:59:35Z</time>
      </trkpt>
      <trkpt lat="43.88365" lon="3.30954">
        <ele>803.4</ele>
        <time>2020-08-24T08:00:00Z</time>
      </trkpt>
      <trkpt lat="43.88456" lon="3.30929">
        <ele>803.7</ele>
        <time>2020-08-24T08:00:35Z</time>
      </trkpt>
      <trkpt lat="43.88549" lon="3.30904">
        <ele>804.5</ele>
        <time>2020-08-24T08:01:21Z</time>
      </trkpt>
      <trkpt lat="43.88638" lon="3.3089">
        <ele>805.6</ele>
        <time>2020-08-24T08:02:18Z</time>
      </trkpt>
      <trkpt lat="43.88736" lon="3.30905">
        <ele>807</ele>
        <time>2020-08-24T08:03:18Z</time>
      </trkpt>
      <trkpt lat="43.88831" lon="3.30943">
        <ele>808.5</ele>
        <time>2020-08-24T08:04:15Z</time>
      </trkpt>
      <trkpt lat="43.88923" lon="3.30978">
        <ele>810.1</ele>
        <time>2020-08-24T08:05:06Z</time>
      </trkpt>
      <trkpt lat="43.89018" lon="3.31022">
        <ele>811.3</ele>
        <time>2020-08-24T08:05:46Z</time>
      </trkpt>
      <trkpt lat="43.89115" lon="3.31063">
        <ele>812.5</ele>
        <time>2020-08-24T08:06:21Z</time>
      </trkpt>
      <trkpt lat="43.89205" lon="3.31072">
        <ele>814.6</ele>
        <time>2020-08-24T08:07:13Z</time>
      </trkpt>
      <trkpt lat="43.89303" lon="3.31056">
        <ele>817.4</ele>
        <time>2020-08-24T08:08:14Z</time>
      </trkpt>
      <trkpt lat="43.89392" lon="3.31001">
        <ele>820.4</ele>
        <time>2020-08-24T08:09:20Z</time>
      </trkpt>
      <trkpt lat="43.89482" lon="3.30959">
        <ele>822.7</ele>
        <time>2020-08-24T08:10:10Z</time>
      </trkpt>
      <trkpt lat="43.89583" lon="3.30979">
        <ele>825.6</ele>
        <time>2020-08-24T08:10:35Z</time>
      </trkpt>
      <trkpt lat="43.89693" lon="3.31018">
        <ele>826</ele>
        <time>2020-08-24T08:10:55Z</time>
      </trkpt>
      <trkpt lat="43.89811" lon="3.31064">
        <ele>826</ele>
        <time>2020-08-24T08:11:10Z</time>
      </trkpt>
      <trkpt lat="43.89908" lon="3.311">
        <ele>826.6</ele>
        <time>2020-08-24T08:11:30Z</time>
      </trkpt>
      <trkpt lat="43.9" lon="3.31095">
        <ele>827</ele>
        <time>2020-08-24T08:12:00Z</time>
      </trkpt>
      <trkpt lat="43.90085" lon="3.31051">
        <ele>828.5</ele>
        <time>2020-08-24T08:12:35Z</time>
      </trkpt>
      <trkpt lat="43.90169" lon="3.31005">
        <ele>829.2</ele>
        <time>2020-08-24T08:13:10Z</time>
      </trkpt>
      <trkpt lat="43.90255" lon="3.30958">
        <ele>830</ele>
        <time>2020-08-24T08:13:50Z</time>
      </trkpt>
      <trkpt lat="43.90345" lon="3.30933">
        <ele>831.2</ele>
        <time>2020-08-24T08:14:30Z</time>
      </trkpt>
      <trkpt lat="43.90437" lon="3.30937">
        <ele>832.6</ele>
        <time>2020-08-24T08:15:05Z</time>
      </trkpt>
      <trkpt lat="43.9054" lon="3.30979">
        <ele>833.7</ele>
        <time>2020-08-24T08:15:30Z</time>
      </trkpt>
      <trkpt lat="43.90635" lon="3.31032">
        <ele>832.5</ele>
        <time>2020-08-24T08:15:50Z</time>
      </trkpt>
      <trkpt lat="43.90747" lon="3.31092">
        <ele>830.8</ele>
        <time>2020-08-24T08:16:10Z</time>
      </trkpt>
      <trkpt lat="43.90836" lon="3.31134">
        <ele>830.1</ele>
        <time>2020-08-24T08:16:55Z</time>
      </trkpt>
      <trkpt lat="43.90945" lon="3.31148">
        <ele>828.7</ele>
        <time>2020-08-24T08:17:20Z</time>
      </trkpt>
      <trkpt lat="43.90995" lon="3.31258">
        <ele>827.3</ele>
        <time>2020-08-24T08:17:50Z</time>
      </trkpt>
      <trkpt lat="43.91074" lon="3.31356">
        <ele>826.6</ele>
        <time>2020-08-24T08:19:05Z</time>
      </trkpt>
      <trkpt lat="43.91169" lon="3.31406">
        <ele>825</ele>
        <time>2020-08-24T08:19:41Z</time>
      </trkpt>
      <trkpt lat="43.91234" lon="3.31517">
        <ele>824.9</ele>
        <time>2020-08-24T08:20:16Z</time>
      </trkpt>
      <trkpt lat="43.91288" lon="3.31622">
        <ele>824.8</ele>
        <time>2020-08-24T08:20:46Z</time>
      </trkpt>
      <trkpt lat="43.91255" lon="3.3174">
        <ele>823.6</ele>
        <time>2020-08-24T08:26:43Z</time>
      </trkpt>
      <trkpt lat="43.91283" lon="3.31616">
        <ele>829.4</ele>
        <time>2020-08-24T08:50:35Z</time>
      </trkpt>
      <trkpt lat="43.91225" lon="3.31505">
        <ele>829.4</ele>
        <time>2020-08-24T08:51:10Z</time>
      </trkpt>
      <trkpt lat="43.91159" lon="3.31394">
        <ele>829.3</ele>
        <time>2020-08-24T08:51:45Z</time>
      </trkpt>
      <trkpt lat="43.91086" lon="3.31302">
        <ele>828.8</ele>
        <time>2020-08-24T08:52:10Z</time>
      </trkpt>
      <trkpt lat="43.91012" lon="3.31209">
        <ele>828.4</ele>
        <time>2020-08-24T08:53:05Z</time>
      </trkpt>
      <trkpt lat="43.91077" lon="3.31108">
        <ele>828.1</ele>
        <time>2020-08-24T08:54:00Z</time>
      </trkpt>
      <trkpt lat="43.91176" lon="3.31082">
        <ele>827.9</ele>
        <time>2020-08-24T08:54:29Z</time>
      </trkpt>
      <trkpt lat="43.91274" lon="3.3108">
        <ele>827.7</ele>
        <time>2020-08-24T08:54:59Z</time>
      </trkpt>
      <trkpt lat="43.91363" lon="3.31107">
        <ele>827.5</ele>
        <time>2020-08-24T08:55:24Z</time>
      </trkpt>
      <trkpt lat="43.91407" lon="3.30993">
        <ele>826.8</ele>
        <time>2020-08-24T08:55:54Z</time>
      </trkpt>
      <trkpt lat="43.91447" lon="3.30859">
        <ele>826.5</ele>
        <time>2020-08-24T08:56:24Z</time>
      </trkpt>
      <trkpt lat="43.91485" lon="3.30732">
        <ele>826.4</ele>
        <time>2020-08-24T08:56:54Z</time>
      </trkpt>
      <trkpt lat="43.9149" lon="3.30595">
        <ele>826.3</ele>
        <time>2020-08-24T08:57:24Z</time>
      </trkpt>
      <trkpt lat="43.91522" lon="3.3048">
        <ele>826.3</ele>
        <time>2020-08-24T08:57:59Z</time>
      </trkpt>
      <trkpt lat="43.91546" lon="3.3035">
        <ele>826.6</ele>
        <time>2020-08-24T08:58:57Z</time>
      </trkpt>
      <trkpt lat="43.91507" lon="3.30229">
        <ele>827.4</ele>
        <time>2020-08-24T08:59:53Z</time>
      </trkpt>
      <trkpt lat="43.91437" lon="3.30129">
        <ele>828.5</ele>
        <time>2020-08-24T09:00:43Z</time>
      </trkpt>
      <trkpt lat="43.91342" lon="3.30089">
        <ele>829.4</ele>
        <time>2020-08-24T09:01:28Z</time>
      </trkpt>
      <trkpt lat="43.91288" lon="3.29979">
        <ele>830.5</ele>
        <time>2020-08-24T09:02:13Z</time>
      </trkpt>
      <trkpt lat="43.91201" lon="3.29911">
        <ele>831.5</ele>
        <time>2020-08-24T09:02:53Z</time>
      </trkpt>
      <trkpt lat="43.91127" lon="3.29826">
        <ele>832.4</ele>
        <time>2020-08-24T09:03:23Z</time>
      </trkpt>
      <trkpt lat="43.91092" lon="3.29701">
        <ele>833.2</ele>
        <time>2020-08-24T09:03:53Z</time>
      </trkpt>
      <trkpt lat="43.91005" lon="3.29609">
        <ele>835</ele>
        <time>2020-08-24T09:04:23Z</time>
      </trkpt>
      <trkpt lat="43.90953" lon="3.29497">
        <ele>837</ele>
        <time>2020-08-24T09:04:48Z</time>
      </trkpt>
      <trkpt lat="43.90919" lon="3.29378">
        <ele>838.3</ele>
        <time>2020-08-24T09:05:13Z</time>
      </trkpt>
      <trkpt lat="43.9085" lon="3.2928">
        <ele>839.3</ele>
        <time>2020-08-24T09:05:38Z</time>
      </trkpt>
      <trkpt lat="43.90782" lon="3.29171">
        <ele>841</ele>
        <time>2020-08-24T09:06:03Z</time>
      </trkpt>
      <trkpt lat="43.9071" lon="3.29049">
        <ele>842.3</ele>
        <time>2020-08-24T09:06:28Z</time>
      </trkpt>
      <trkpt lat="43.90631" lon="3.28982">
        <ele>842.8</ele>
        <time>2020-08-24T09:06:43Z</time>
      </trkpt>
      <trkpt lat="43.90556" lon="3.28855">
        <ele>842.1</ele>
        <time>2020-08-24T09:06:58Z</time>
      </trkpt>
      <trkpt lat="43.90515" lon="3.28723">
        <ele>841.5</ele>
        <time>2020-08-24T09:07:13Z</time>
      </trkpt>
      <trkpt lat="43.90501" lon="3.28579">
        <ele>840.2</ele>
        <time>2020-08-24T09:07:28Z</time>
      </trkpt>
      <trkpt lat="43.90428" lon="3.28471">
        <ele>838.3</ele>
        <time>2020-08-24T09:07:43Z</time>
      </trkpt>
      <trkpt lat="43.90346" lon="3.2837">
        <ele>837.2</ele>
        <time>2020-08-24T09:08:03Z</time>
      </trkpt>
      <trkpt lat="43.9024" lon="3.28331">
        <ele>836</ele>
        <time>2020-08-24T09:08:23Z</time>
      </trkpt>
      <trkpt lat="43.90171" lon="3.28213">
        <ele>836.1</ele>
        <time>2020-08-24T09:08:43Z</time>
      </trkpt>
      <trkpt lat="43.9008" lon="3.28136">
        <ele>835.5</ele>
        <time>2020-08-24T09:09:03Z</time>
      </trkpt>
      <trkpt lat="43.89978" lon="3.28145">
        <ele>832.8</ele>
        <time>2020-08-24T09:09:18Z</time>
      </trkpt>
      <trkpt lat="43.89903" lon="3.28035">
        <ele>832.9</ele>
        <time>2020-08-24T09:09:33Z</time>
      </trkpt>
      <trkpt lat="43.89857" lon="3.27904">
        <ele>831.6</ele>
        <time>2020-08-24T09:09:53Z</time>
      </trkpt>
      <trkpt lat="43.89769" lon="3.27784">
        <ele>828.8</ele>
        <time>2020-08-24T09:10:08Z</time>
      </trkpt>
      <trkpt lat="43.89762" lon="3.27634">
        <ele>827.9</ele>
        <time>2020-08-24T09:10:23Z</time>
      </trkpt>
      <trkpt lat="43.89835" lon="3.27551">
        <ele>826.4</ele>
        <time>2020-08-24T09:10:58Z</time>
      </trkpt>
      <trkpt lat="43.8987" lon="3.27431">
        <ele>821.7</ele>
        <time>2020-08-24T09:12:16Z</time>
      </trkpt>
      <trkpt lat="43.89853" lon="3.27267">
        <ele>818.1</ele>
        <time>2020-08-24T09:12:31Z</time>
      </trkpt>
      <trkpt lat="43.89787" lon="3.27157">
        <ele>817.2</ele>
        <time>2020-08-24T09:12:46Z</time>
      </trkpt>
      <trkpt lat="43.89766" lon="3.27022">
        <ele>816.2</ele>
        <time>2020-08-24T09:13:11Z</time>
      </trkpt>
      <trkpt lat="43.89807" lon="3.26905">
        <ele>818.8</ele>
        <time>2020-08-24T09:13:59Z</time>
      </trkpt>
      <trkpt lat="43.89794" lon="3.2677">
        <ele>820.7</ele>
        <time>2020-08-24T09:14:55Z</time>
      </trkpt>
      <trkpt lat="43.89758" lon="3.26646">
        <ele>822.9</ele>
        <time>2020-08-24T09:15:46Z</time>
      </trkpt>
      <trkpt lat="43.89718" lon="3.26519">
        <ele>825.5</ele>
        <time>2020-08-24T09:16:38Z</time>
      </trkpt>
      <trkpt lat="43.89713" lon="3.2639">
        <ele>827.4</ele>
        <time>2020-08-24T09:17:13Z</time>
      </trkpt>
      <trkpt lat="43.89687" lon="3.26261">
        <ele>829</ele>
        <time>2020-08-24T09:17:43Z</time>
      </trkpt>
      <trkpt lat="43.89639" lon="3.26144">
        <ele>830.4</ele>
        <time>2020-08-24T09:18:13Z</time>
      </trkpt>
      <trkpt lat="43.89592" lon="3.26017">
        <ele>831.8</ele>
        <time>2020-08-24T09:18:43Z</time>
      </trkpt>
      <trkpt lat="43.89523" lon="3.25911">
        <ele>834.3</ele>
        <time>2020-08-24T09:19:13Z</time>
      </trkpt>
      <trkpt lat="43.89505" lon="3.25766">
        <ele>835.8</ele>
        <time>2020-08-24T09:19:42Z</time>
      </trkpt>
      <trkpt lat="43.89488" lon="3.2563">
        <ele>836</ele>
        <time>2020-08-24T09:20:02Z</time>
      </trkpt>
      <trkpt lat="43.8944" lon="3.25507">
        <ele>835.5</ele>
        <time>2020-08-24T09:20:17Z</time>
      </trkpt>
      <trkpt lat="43.89413" lon="3.25354">
        <ele>834.6</ele>
        <time>2020-08-24T09:20:32Z</time>
      </trkpt>
      <trkpt lat="43.89386" lon="3.25203">
        <ele>831.5</ele>
        <time>2020-08-24T09:20:47Z</time>
      </trkpt>
      <trkpt lat="43.89338" lon="3.25052">
        <ele>828.9</ele>
        <time>2020-08-24T09:21:02Z</time>
      </trkpt>
      <trkpt lat="43.89297" lon="3.24898">
        <ele>828</ele>
        <time>2020-08-24T09:21:17Z</time>
      </trkpt>
      <trkpt lat="43.89246" lon="3.24743">
        <ele>827.3</ele>
        <time>2020-08-24T09:21:32Z</time>
      </trkpt>
      <trkpt lat="43.89156" lon="3.24658">
        <ele>824.6</ele>
        <time>2020-08-24T09:21:47Z</time>
      </trkpt>
      <trkpt lat="43.89049" lon="3.24637">
        <ele>819</ele>
        <time>2020-08-24T09:22:02Z</time>
      </trkpt>
      <trkpt lat="43.89003" lon="3.24496">
        <ele>812.8</ele>
        <time>2020-08-24T09:22:17Z</time>
      </trkpt>
      <trkpt lat="43.88918" lon="3.24429">
        <ele>813.7</ele>
        <time>2020-08-24T09:22:57Z</time>
      </trkpt>
      <trkpt lat="43.88825" lon="3.24395">
        <ele>813</ele>
        <time>2020-08-24T09:24:07Z</time>
      </trkpt>
      <trkpt lat="43.88748" lon="3.24321">
        <ele>812.1</ele>
        <time>2020-08-24T09:25:14Z</time>
      </trkpt>
      <trkpt lat="43.88681" lon="3.24228">
        <ele>813.1</ele>
        <time>2020-08-24T09:26:14Z</time>
      </trkpt>
      <trkpt lat="43.88594" lon="3.24157">
        <ele>814.4</ele>
        <time>2020-08-24T09:26:54Z</time>
      </trkpt>
      <trkpt lat="43.88538" lon="3.2404">
        <ele>816.6</ele>
        <time>2020-08-24T09:27:37Z</time>
      </trkpt>
      <trkpt lat="43.88471" lon="3.23951">
        <ele>819</ele>
        <time>2020-08-24T09:28:27Z</time>
      </trkpt>
      <trkpt lat="43.88409" lon="3.23849">
        <ele>823.5</ele>
        <time>2020-08-24T09:28:57Z</time>
      </trkpt>
      <trkpt lat="43.88363" lon="3.23728">
        <ele>824.1</ele>
        <time>2020-08-24T09:29:40Z</time>
      </trkpt>
      <trkpt lat="43.88347" lon="3.23596">
        <ele>826.3</ele>
        <time>2020-08-24T09:30:46Z</time>
      </trkpt>
      <trkpt lat="43.88364" lon="3.23468">
        <ele>827.9</ele>
        <time>2020-08-24T09:31:26Z</time>
      </trkpt>
      <trkpt lat="43.88412" lon="3.23351">
        <ele>830.5</ele>
        <time>2020-08-24T09:32:01Z</time>
      </trkpt>
      <trkpt lat="43.88505" lon="3.233">
        <ele>831.8</ele>
        <time>2020-08-24T09:32:26Z</time>
      </trkpt>
      <trkpt lat="43.88589" lon="3.23237">
        <ele>831.6</ele>
        <time>2020-08-24T09:32:41Z</time>
      </trkpt>
      <trkpt lat="43.88645" lon="3.23142">
        <ele>831.2</ele>
        <time>2020-08-24T10:13:30Z</time>
      </trkpt>
      <trkpt lat="43.8866" lon="3.22997">
        <ele>830.6</ele>
        <time>2020-08-24T10:13:50Z</time>
      </trkpt>
      <trkpt lat="43.88673" lon="3.22863">
        <ele>830</ele>
        <time>2020-08-24T10:14:05Z</time>
      </trkpt>
      <trkpt lat="43.88673" lon="3.22721">
        <ele>831</ele>
        <time>2020-08-24T10:14:25Z</time>
      </trkpt>
      <trkpt lat="43.88642" lon="3.22584">
        <ele>830.4</ele>
        <time>2020-08-24T10:15:00Z</time>
      </trkpt>
      <trkpt lat="43.88605" lon="3.22466">
        <ele>826.5</ele>
        <time>2020-08-24T10:15:20Z</time>
      </trkpt>
      <trkpt lat="43.88565" lon="3.22348">
        <ele>824.8</ele>
        <time>2020-08-24T10:15:35Z</time>
      </trkpt>
      <trkpt lat="43.88516" lon="3.22202">
        <ele>823.6</ele>
        <time>2020-08-24T10:15:55Z</time>
      </trkpt>
      <trkpt lat="43.88529" lon="3.2207">
        <ele>822.6</ele>
        <time>2020-08-24T10:16:20Z</time>
      </trkpt>
      <trkpt lat="43.88629" lon="3.2201">
        <ele>817.5</ele>
        <time>2020-08-24T10:16:45Z</time>
      </trkpt>
      <trkpt lat="43.88702" lon="3.21877">
        <ele>812</ele>
        <time>2020-08-24T10:17:00Z</time>
      </trkpt>
      <trkpt lat="43.88746" lon="3.21758">
        <ele>809.2</ele>
        <time>2020-08-24T10:17:10Z</time>
      </trkpt>
      <trkpt lat="43.88799" lon="3.2163">
        <ele>806.9</ele>
        <time>2020-08-24T10:17:20Z</time>
      </trkpt>
      <trkpt lat="43.88852" lon="3.21522">
        <ele>802.3</ele>
        <time>2020-08-24T10:17:30Z</time>
      </trkpt>
      <trkpt lat="43.88804" lon="3.21392">
        <ele>765.9</ele>
        <time>2020-08-24T10:18:05Z</time>
      </trkpt>
      <trkpt lat="43.88754" lon="3.21265">
        <ele>754.9</ele>
        <time>2020-08-24T10:18:30Z</time>
      </trkpt>
      <trkpt lat="43.88762" lon="3.21097">
        <ele>744.9</ele>
        <time>2020-08-24T10:18:50Z</time>
      </trkpt>
      <trkpt lat="43.88779" lon="3.20963">
        <ele>741.7</ele>
        <time>2020-08-24T10:19:10Z</time>
      </trkpt>
      <trkpt lat="43.88795" lon="3.20839">
        <ele>739.8</ele>
        <time>2020-08-24T10:20:08Z</time>
      </trkpt>
      <trkpt lat="43.88804" lon="3.20705">
        <ele>741.8</ele>
        <time>2020-08-24T10:21:33Z</time>
      </trkpt>
      <trkpt lat="43.88895" lon="3.20607">
        <ele>744.4</ele>
        <time>2020-08-24T10:21:58Z</time>
      </trkpt>
      <trkpt lat="43.88971" lon="3.20503">
        <ele>742.8</ele>
        <time>2020-08-24T10:22:13Z</time>
      </trkpt>
      <trkpt lat="43.89084" lon="3.20459">
        <ele>742.2</ele>
        <time>2020-08-24T10:22:33Z</time>
      </trkpt>
      <trkpt lat="43.89182" lon="3.20485">
        <ele>740</ele>
        <time>2020-08-24T10:22:48Z</time>
      </trkpt>
      <trkpt lat="43.89263" lon="3.20356">
        <ele>732</ele>
        <time>2020-08-24T10:23:03Z</time>
      </trkpt>
      <trkpt lat="43.89392" lon="3.20393">
        <ele>725</ele>
        <time>2020-08-24T10:23:18Z</time>
      </trkpt>
      <trkpt lat="43.89479" lon="3.20491">
        <ele>716.4</ele>
        <time>2020-08-24T10:23:28Z</time>
      </trkpt>
      <trkpt lat="43.89576" lon="3.20613">
        <ele>707.5</ele>
        <time>2020-08-24T10:23:38Z</time>
      </trkpt>
      <trkpt lat="43.89666" lon="3.20747">
        <ele>700.7</ele>
        <time>2020-08-24T10:23:48Z</time>
      </trkpt>
      <trkpt lat="43.89733" lon="3.20657">
        <ele>699.4</ele>
        <time>2020-08-24T10:24:18Z</time>
      </trkpt>
      <trkpt lat="43.89715" lon="3.20524">
        <ele>688.2</ele>
        <time>2020-08-24T10:24:48Z</time>
      </trkpt>
      <trkpt lat="43.89693" lon="3.20354">
        <ele>682.3</ele>
        <time>2020-08-24T10:25:03Z</time>
      </trkpt>
      <trkpt lat="43.89701" lon="3.20223">
        <ele>678.6</ele>
        <time>2020-08-24T10:25:13Z</time>
      </trkpt>
      <trkpt lat="43.89729" lon="3.20102">
        <ele>676.1</ele>
        <time>2020-08-24T10:25:28Z</time>
      </trkpt>
      <trkpt lat="43.89716" lon="3.19952">
        <ele>671.5</ele>
        <time>2020-08-24T10:25:48Z</time>
      </trkpt>
      <trkpt lat="43.89693" lon="3.19822">
        <ele>668.3</ele>
        <time>2020-08-24T10:26:03Z</time>
      </trkpt>
      <trkpt lat="43.89655" lon="3.19704">
        <ele>666.9</ele>
        <time>2020-08-24T10:26:28Z</time>
      </trkpt>
      <trkpt lat="43.89617" lon="3.19567">
        <ele>664.1</ele>
        <time>2020-08-24T10:26:58Z</time>
      </trkpt>
      <trkpt lat="43.89598" lon="3.19431">
        <ele>662.8</ele>
        <time>2020-08-24T10:27:38Z</time>
      </trkpt>
      <trkpt lat="43.8957" lon="3.19303">
        <ele>662.3</ele>
        <time>2020-08-24T10:28:13Z</time>
      </trkpt>
      <trkpt lat="43.89527" lon="3.19178">
        <ele>661.6</ele>
        <time>2020-08-24T10:28:48Z</time>
      </trkpt>
      <trkpt lat="43.89516" lon="3.19046">
        <ele>659.2</ele>
        <time>2020-08-24T10:29:13Z</time>
      </trkpt>
      <trkpt lat="43.89532" lon="3.18911">
        <ele>658.2</ele>
        <time>2020-08-24T10:29:28Z</time>
      </trkpt>
      <trkpt lat="43.89562" lon="3.18793">
        <ele>658.4</ele>
        <time>2020-08-24T10:29:58Z</time>
      </trkpt>
      <trkpt lat="43.89609" lon="3.18678">
        <ele>658.7</ele>
        <time>2020-08-24T10:30:38Z</time>
      </trkpt>
      <trkpt lat="43.89666" lon="3.18574">
        <ele>657.4</ele>
        <time>2020-08-24T10:30:58Z</time>
      </trkpt>
      <trkpt lat="43.89744" lon="3.18482">
        <ele>655.2</ele>
        <time>2020-08-24T10:31:13Z</time>
      </trkpt>
      <trkpt lat="43.89815" lon="3.18401">
        <ele>655.7</ele>
        <time>2020-08-24T10:31:33Z</time>
      </trkpt>
      <trkpt lat="43.89863" lon="3.18292">
        <ele>655.5</ele>
        <time>2020-08-24T10:32:08Z</time>
      </trkpt>
      <trkpt lat="43.89904" lon="3.18162">
        <ele>653.8</ele>
        <time>2020-08-24T10:32:33Z</time>
      </trkpt>
      <trkpt lat="43.89942" lon="3.18043">
        <ele>652.4</ele>
        <time>2020-08-24T10:32:53Z</time>
      </trkpt>
      <trkpt lat="43.90018" lon="3.1798">
        <ele>655.8</ele>
        <time>2020-08-24T10:34:02Z</time>
      </trkpt>
      <trkpt lat="43.90114" lon="3.17986">
        <ele>662.1</ele>
        <time>2020-08-24T10:35:15Z</time>
      </trkpt>
      <trkpt lat="43.90045" lon="3.17894">
        <ele>671.9</ele>
        <time>2020-08-24T10:36:45Z</time>
      </trkpt>
      <trkpt lat="43.89953" lon="3.17828">
        <ele>679</ele>
        <time>2020-08-24T10:38:05Z</time>
      </trkpt>
      <trkpt lat="43.89863" lon="3.17843">
        <ele>679</ele>
        <time>2020-08-24T10:38:20Z</time>
      </trkpt>
      <trkpt lat="43.89793" lon="3.17737">
        <ele>678.9</ele>
        <time>2020-08-24T10:38:35Z</time>
      </trkpt>
      <trkpt lat="43.89759" lon="3.17614">
        <ele>678.9</ele>
        <time>2020-08-24T10:38:50Z</time>
      </trkpt>
      <trkpt lat="43.89748" lon="3.17468">
        <ele>679.9</ele>
        <time>2020-08-24T10:39:10Z</time>
      </trkpt>
      <trkpt lat="43.89705" lon="3.17332">
        <ele>678.7</ele>
        <time>2020-08-24T10:39:30Z</time>
      </trkpt>
      <trkpt lat="43.89598" lon="3.17252">
        <ele>677.3</ele>
        <time>2020-08-24T10:39:50Z</time>
      </trkpt>
      <trkpt lat="43.89565" lon="3.17098">
        <ele>674</ele>
        <time>2020-08-24T10:40:05Z</time>
      </trkpt>
      <trkpt lat="43.89521" lon="3.16983">
        <ele>672.2</ele>
        <time>2020-08-24T10:40:15Z</time>
      </trkpt>
      <trkpt lat="43.89403" lon="3.16918">
        <ele>668.8</ele>
        <time>2020-08-24T10:40:30Z</time>
      </trkpt>
      <trkpt lat="43.89309" lon="3.16898">
        <ele>666.1</ele>
        <time>2020-08-24T10:40:40Z</time>
      </trkpt>
      <trkpt lat="43.89238" lon="3.16751">
        <ele>662.2</ele>
        <time>2020-08-24T10:40:55Z</time>
      </trkpt>
      <trkpt lat="43.89234" lon="3.16612">
        <ele>659.5</ele>
        <time>2020-08-24T10:41:05Z</time>
      </trkpt>
      <trkpt lat="43.89191" lon="3.16469">
        <ele>656.5</ele>
        <time>2020-08-24T10:41:15Z</time>
      </trkpt>
      <trkpt lat="43.89175" lon="3.16344">
        <ele>653.4</ele>
        <time>2020-08-24T10:41:25Z</time>
      </trkpt>
      <trkpt lat="43.89101" lon="3.16233">
        <ele>647.6</ele>
        <time>2020-08-24T10:41:40Z</time>
      </trkpt>
      <trkpt lat="43.89072" lon="3.16108">
        <ele>639.7</ele>
        <time>2020-08-24T10:41:55Z</time>
      </trkpt>
      <trkpt lat="43.89083" lon="3.15944">
        <ele>631.4</ele>
        <time>2020-08-24T10:42:10Z</time>
      </trkpt>
      <trkpt lat="43.89081" lon="3.15769">
        <ele>626.2</ele>
        <time>2020-08-24T10:42:25Z</time>
      </trkpt>
      <trkpt lat="43.89061" lon="3.15594">
        <ele>624</ele>
        <time>2020-08-24T10:42:40Z</time>
      </trkpt>
      <trkpt lat="43.89042" lon="3.15465">
        <ele>621.6</ele>
        <time>2020-08-24T10:42:50Z</time>
      </trkpt>
      <trkpt lat="43.89" lon="3.15323">
        <ele>616.5</ele>
        <time>2020-08-24T10:43:05Z</time>
      </trkpt>
      <trkpt lat="43.88935" lon="3.15218">
        <ele>614.1</ele>
        <time>2020-08-24T10:43:30Z</time>
      </trkpt>
      <trkpt lat="43.88852" lon="3.15116">
        <ele>605.7</ele>
        <time>2020-08-24T10:43:55Z</time>
      </trkpt>
      <trkpt lat="43.88777" lon="3.15027">
        <ele>602</ele>
        <time>2020-08-24T10:44:10Z</time>
      </trkpt>
      <trkpt lat="43.88673" lon="3.14957">
        <ele>595</ele>
        <time>2020-08-24T10:44:25Z</time>
      </trkpt>
      <trkpt lat="43.88583" lon="3.14922">
        <ele>588.6</ele>
        <time>2020-08-24T10:44:35Z</time>
      </trkpt>
      <trkpt lat="43.8846" lon="3.14879">
        <ele>582.4</ele>
        <time>2020-08-24T10:44:50Z</time>
      </trkpt>
      <trkpt lat="43.8836" lon="3.14817">
        <ele>573.5</ele>
        <time>2020-08-24T10:45:10Z</time>
      </trkpt>
      <trkpt lat="43.8829" lon="3.14722">
        <ele>568</ele>
        <time>2020-08-24T10:45:35Z</time>
      </trkpt>
      <trkpt lat="43.88321" lon="3.14586">
        <ele>564.7</ele>
        <time>2020-08-24T10:45:55Z</time>
      </trkpt>
      <trkpt lat="43.88319" lon="3.14443">
        <ele>562.2</ele>
        <time>2020-08-24T10:46:15Z</time>
      </trkpt>
      <trkpt lat="43.88248" lon="3.14322">
        <ele>559.6</ele>
        <time>2020-08-24T10:46:35Z</time>
      </trkpt>
      <trkpt lat="43.88218" lon="3.14191">
        <ele>557.2</ele>
        <time>2020-08-24T10:46:55Z</time>
      </trkpt>
      <trkpt lat="43.88239" lon="3.14033">
        <ele>556.8</ele>
        <time>2020-08-24T10:47:15Z</time>
      </trkpt>
      <trkpt lat="43.88275" lon="3.13897">
        <ele>555.1</ele>
        <time>2020-08-24T10:47:35Z</time>
      </trkpt>
      <trkpt lat="43.88302" lon="3.13758">
        <ele>552.8</ele>
        <time>2020-08-24T10:47:55Z</time>
      </trkpt>
      <trkpt lat="43.88268" lon="3.13611">
        <ele>550.9</ele>
        <time>2020-08-24T10:48:15Z</time>
      </trkpt>
      <trkpt lat="43.88208" lon="3.13513">
        <ele>548.8</ele>
        <time>2020-08-24T10:48:30Z</time>
      </trkpt>
      <trkpt lat="43.88117" lon="3.13415">
        <ele>546.4</ele>
        <time>2020-08-24T10:48:50Z</time>
      </trkpt>
      <trkpt lat="43.88024" lon="3.13388">
        <ele>543.3</ele>
        <time>2020-08-24T10:49:05Z</time>
      </trkpt>
      <trkpt lat="43.87928" lon="3.13383">
        <ele>541</ele>
        <time>2020-08-24T10:49:20Z</time>
      </trkpt>
      <trkpt lat="43.87837" lon="3.13347">
        <ele>537.2</ele>
        <time>2020-08-24T10:49:35Z</time>
      </trkpt>
      <trkpt lat="43.87735" lon="3.13261">
        <ele>530.2</ele>
        <time>2020-08-24T10:49:55Z</time>
      </trkpt>
      <trkpt lat="43.87675" lon="3.13149">
        <ele>536.9</ele>
        <time>2020-08-24T10:50:15Z</time>
      </trkpt>
      <trkpt lat="43.87617" lon="3.1305">
        <ele>542.7</ele>
        <time>2020-08-24T10:50:35Z</time>
      </trkpt>
      <trkpt lat="43.87576" lon="3.12934">
        <ele>545.2</ele>
        <time>2020-08-24T10:51:00Z</time>
      </trkpt>
      <trkpt lat="43.876" lon="3.12782">
        <ele>541.3</ele>
        <time>2020-08-24T10:51:25Z</time>
      </trkpt>
      <trkpt lat="43.87626" lon="3.12655">
        <ele>540.7</ele>
        <time>2020-08-24T10:51:45Z</time>
      </trkpt>
      <trkpt lat="43.8765" lon="3.12511">
        <ele>538.2</ele>
        <time>2020-08-24T10:52:10Z</time>
      </trkpt>
      <trkpt lat="43.87648" lon="3.12361">
        <ele>535.3</ele>
        <time>2020-08-24T10:52:35Z</time>
      </trkpt>
      <trkpt lat="43.87615" lon="3.12233">
        <ele>534.3</ele>
        <time>2020-08-24T10:53:00Z</time>
      </trkpt>
      <trkpt lat="43.87563" lon="3.12104">
        <ele>532.3</ele>
        <time>2020-08-24T10:53:48Z</time>
      </trkpt>
      <trkpt lat="43.8749" lon="3.12008">
        <ele>529.7</ele>
        <time>2020-08-24T10:54:13Z</time>
      </trkpt>
      <trkpt lat="43.87419" lon="3.119">
        <ele>528.3</ele>
        <time>2020-08-24T10:54:38Z</time>
      </trkpt>
      <trkpt lat="43.87347" lon="3.11785">
        <ele>527.8</ele>
        <time>2020-08-24T10:55:03Z</time>
      </trkpt>
      <trkpt lat="43.87267" lon="3.11673">
        <ele>526.7</ele>
        <time>2020-08-24T10:55:28Z</time>
      </trkpt>
      <trkpt lat="43.87232" lon="3.11554">
        <ele>525.9</ele>
        <time>2020-08-24T10:55:48Z</time>
      </trkpt>
      <trkpt lat="43.87259" lon="3.11425">
        <ele>525.4</ele>
        <time>2020-08-24T10:56:13Z</time>
      </trkpt>
      <trkpt lat="43.87294" lon="3.11307">
        <ele>525.6</ele>
        <time>2020-08-24T10:56:38Z</time>
      </trkpt>
      <trkpt lat="43.87233" lon="3.11212">
        <ele>526</ele>
        <time>2020-08-24T10:57:03Z</time>
      </trkpt>
      <trkpt lat="43.87181" lon="3.11106">
        <ele>526.2</ele>
        <time>2020-08-24T10:57:28Z</time>
      </trkpt>
      <trkpt lat="43.87142" lon="3.10979">
        <ele>526</ele>
        <time>2020-08-24T10:57:53Z</time>
      </trkpt>
      <trkpt lat="43.87094" lon="3.1086">
        <ele>526.3</ele>
        <time>2020-08-24T10:58:13Z</time>
      </trkpt>
      <trkpt lat="43.87052" lon="3.10714">
        <ele>526.3</ele>
        <time>2020-08-24T10:58:33Z</time>
      </trkpt>
      <trkpt lat="43.86996" lon="3.10576">
        <ele>526</ele>
        <time>2020-08-24T10:58:52Z</time>
      </trkpt>
      <trkpt lat="43.87006" lon="3.10419">
        <ele>525.4</ele>
        <time>2020-08-24T10:59:12Z</time>
      </trkpt>
      <trkpt lat="43.86966" lon="3.10304">
        <ele>525</ele>
        <time>2020-08-24T10:59:27Z</time>
      </trkpt>
      <trkpt lat="43.86907" lon="3.10157">
        <ele>524.2</ele>
        <time>2020-08-24T10:59:47Z</time>
      </trkpt>
      <trkpt lat="43.86904" lon="3.10007">
        <ele>522.7</ele>
        <time>2020-08-24T11:00:07Z</time>
      </trkpt>
      <trkpt lat="43.86897" lon="3.0987">
        <ele>521.1</ele>
        <time>2020-08-24T11:00:27Z</time>
      </trkpt>
      <trkpt lat="43.86922" lon="3.09716">
        <ele>519.3</ele>
        <time>2020-08-24T11:00:52Z</time>
      </trkpt>
      <trkpt lat="43.86928" lon="3.09581">
        <ele>519.4</ele>
        <time>2020-08-24T11:01:12Z</time>
      </trkpt>
      <trkpt lat="43.86943" lon="3.09455">
        <ele>519.4</ele>
        <time>2020-08-24T11:01:32Z</time>
      </trkpt>
      <trkpt lat="43.8696" lon="3.0933">
        <ele>519.5</ele>
        <time>2020-08-24T11:01:52Z</time>
      </trkpt>
      <trkpt lat="43.86972" lon="3.0918">
        <ele>516.8</ele>
        <time>2020-08-24T11:02:17Z</time>
      </trkpt>
      <trkpt lat="43.86959" lon="3.09029">
        <ele>515.8</ele>
        <time>2020-08-24T11:02:42Z</time>
      </trkpt>
      <trkpt lat="43.86927" lon="3.08879">
        <ele>515.9</ele>
        <time>2020-08-24T11:03:02Z</time>
      </trkpt>
      <trkpt lat="43.86891" lon="3.0876">
        <ele>516</ele>
        <time>2020-08-24T11:03:17Z</time>
      </trkpt>
      <trkpt lat="43.86858" lon="3.08613">
        <ele>513.5</ele>
        <time>2020-08-24T11:03:37Z</time>
      </trkpt>
      <trkpt lat="43.86838" lon="3.08466">
        <ele>511.3</ele>
        <time>2020-08-24T11:03:57Z</time>
      </trkpt>
      <trkpt lat="43.86803" lon="3.08332">
        <ele>511.6</ele>
        <time>2020-08-24T11:04:17Z</time>
      </trkpt>
      <trkpt lat="43.86789" lon="3.08186">
        <ele>510.9</ele>
        <time>2020-08-24T11:04:42Z</time>
      </trkpt>
      <trkpt lat="43.86765" lon="3.08046">
        <ele>512.7</ele>
        <time>2020-08-24T11:05:07Z</time>
      </trkpt>
      <trkpt lat="43.8673" lon="3.07913">
        <ele>511.2</ele>
        <time>2020-08-24T11:05:32Z</time>
      </trkpt>
      <trkpt lat="43.86688" lon="3.07793">
        <ele>509.1</ele>
        <time>2020-08-24T11:05:57Z</time>
      </trkpt>
      <trkpt lat="43.86622" lon="3.07682">
        <ele>511.6</ele>
        <time>2020-08-24T11:08:03Z</time>
      </trkpt>
      <trkpt lat="43.86589" lon="3.07557">
        <ele>511.7</ele>
        <time>2020-08-24T11:08:33Z</time>
      </trkpt>
      <trkpt lat="43.86619" lon="3.07434">
        <ele>510.7</ele>
        <time>2020-08-24T11:08:53Z</time>
      </trkpt>
      <trkpt lat="43.86665" lon="3.07298">
        <ele>510</ele>
        <time>2020-08-24T11:09:13Z</time>
      </trkpt>
      <trkpt lat="43.86695" lon="3.07153">
        <ele>509</ele>
        <time>2020-08-24T11:09:33Z</time>
      </trkpt>
      <trkpt lat="43.86705" lon="3.07014">
        <ele>507.6</ele>
        <time>2020-08-24T11:09:53Z</time>
      </trkpt>
      <trkpt lat="43.86705" lon="3.06877">
        <ele>506.1</ele>
        <time>2020-08-24T11:10:13Z</time>
      </trkpt>
      <trkpt lat="43.86658" lon="3.06757">
        <ele>505.1</ele>
        <time>2020-08-24T11:10:33Z</time>
      </trkpt>
      <trkpt lat="43.86631" lon="3.06623">
        <ele>504.2</ele>
        <time>2020-08-24T11:10:53Z</time>
      </trkpt>
      <trkpt lat="43.86623" lon="3.06486">
        <ele>503.4</ele>
        <time>2020-08-24T11:11:13Z</time>
      </trkpt>
      <trkpt lat="43.8661" lon="3.06336">
        <ele>502.9</ele>
        <time>2020-08-24T11:11:33Z</time>
      </trkpt>
      <trkpt lat="43.86645" lon="3.06209">
        <ele>502.1</ele>
        <time>2020-08-24T11:11:53Z</time>
      </trkpt>
      <trkpt lat="43.86698" lon="3.06097">
        <ele>501.9</ele>
        <time>2020-08-24T11:12:18Z</time>
      </trkpt>
      <trkpt lat="43.86755" lon="3.05982">
        <ele>501.4</ele>
        <time>2020-08-24T11:12:48Z</time>
      </trkpt>
      <trkpt lat="43.86803" lon="3.05861">
        <ele>499.9</ele>
        <time>2020-08-24T11:13:13Z</time>
      </trkpt>
      <trkpt lat="43.86837" lon="3.05733">
        <ele>498.9</ele>
        <time>2020-08-24T11:13:33Z</time>
      </trkpt>
      <trkpt lat="43.86825" lon="3.05585">
        <ele>497.2</ele>
        <time>2020-08-24T11:13:58Z</time>
      </trkpt>
      <trkpt lat="43.86863" lon="3.0546">
        <ele>496.3</ele>
        <time>2020-08-24T11:14:18Z</time>
      </trkpt>
      <trkpt lat="43.86877" lon="3.05312">
        <ele>495.6</ele>
        <time>2020-08-24T11:14:38Z</time>
      </trkpt>
      <trkpt lat="43.86877" lon="3.05169">
        <ele>494.8</ele>
        <time>2020-08-24T11:14:58Z</time>
      </trkpt>
      <trkpt lat="43.86906" lon="3.05026">
        <ele>494.2</ele>
        <time>2020-08-24T11:15:23Z</time>
      </trkpt>
      <trkpt lat="43.86902" lon="3.04882">
        <ele>493.8</ele>
        <time>2020-08-24T11:15:48Z</time>
      </trkpt>
      <trkpt lat="43.86941" lon="3.04758">
        <ele>493.6</ele>
        <time>2020-08-24T11:16:18Z</time>
      </trkpt>
      <trkpt lat="43.86997" lon="3.04637">
        <ele>493.2</ele>
        <time>2020-08-24T11:16:48Z</time>
      </trkpt>
      <trkpt lat="43.87068" lon="3.04538">
        <ele>492.9</ele>
        <time>2020-08-24T11:17:18Z</time>
      </trkpt>
      <trkpt lat="43.87145" lon="3.04439">
        <ele>492</ele>
        <time>2020-08-24T11:17:43Z</time>
      </trkpt>
      <trkpt lat="43.87177" lon="3.04284">
        <ele>491.4</ele>
        <time>2020-08-24T11:18:03Z</time>
      </trkpt>
      <trkpt lat="43.87157" lon="3.04122">
        <ele>490.6</ele>
        <time>2020-08-24T11:18:23Z</time>
      </trkpt>
      <trkpt lat="43.87102" lon="3.03972">
        <ele>490.2</ele>
        <time>2020-08-24T11:18:43Z</time>
      </trkpt>
      <trkpt lat="43.87042" lon="3.0387">
        <ele>488.8</ele>
        <time>2020-08-24T11:18:58Z</time>
      </trkpt>
      <trkpt lat="43.86967" lon="3.03763">
        <ele>485.1</ele>
        <time>2020-08-24T11:19:18Z</time>
      </trkpt>
      <trkpt lat="43.86896" lon="3.03646">
        <ele>483.6</ele>
        <time>2020-08-24T11:19:43Z</time>
      </trkpt>
      <trkpt lat="43.8696" lon="3.03555">
        <ele>482.1</ele>
        <time>2020-08-24T11:20:08Z</time>
      </trkpt>
      <trkpt lat="43.87049" lon="3.03499">
        <ele>481.6</ele>
        <time>2020-08-24T11:20:33Z</time>
      </trkpt>
      <trkpt lat="43.87124" lon="3.03417">
        <ele>481</ele>
        <time>2020-08-24T11:20:58Z</time>
      </trkpt>
      <trkpt lat="43.87177" lon="3.03316">
        <ele>480.9</ele>
        <time>2020-08-24T11:21:23Z</time>
      </trkpt>
      <trkpt lat="43.87212" lon="3.03196">
        <ele>482</ele>
        <time>2020-08-24T11:21:48Z</time>
      </trkpt>
      <trkpt lat="43.87292" lon="3.03088">
        <ele>482.9</ele>
        <time>2020-08-24T11:22:13Z</time>
      </trkpt>
      <trkpt lat="43.87279" lon="3.02947">
        <ele>481</ele>
        <time>2020-08-24T11:22:33Z</time>
      </trkpt>
      <trkpt lat="43.87267" lon="3.02796">
        <ele>479.9</ele>
        <time>2020-08-24T11:22:58Z</time>
      </trkpt>
      <trkpt lat="43.8731" lon="3.02687">
        <ele>481.4</ele>
        <time>2020-08-24T11:23:18Z</time>
      </trkpt>
      <trkpt lat="43.8737" lon="3.02572">
        <ele>482.3</ele>
        <time>2020-08-24T11:23:37Z</time>
      </trkpt>
      <trkpt lat="43.87429" lon="3.02454">
        <ele>480.7</ele>
        <time>2020-08-24T11:23:57Z</time>
      </trkpt>
      <trkpt lat="43.87501" lon="3.02344">
        <ele>477.9</ele>
        <time>2020-08-24T11:24:17Z</time>
      </trkpt>
      <trkpt lat="43.87555" lon="3.02244">
        <ele>475.3</ele>
        <time>2020-08-24T11:24:32Z</time>
      </trkpt>
      <trkpt lat="43.87628" lon="3.0214">
        <ele>475</ele>
        <time>2020-08-24T11:24:52Z</time>
      </trkpt>
      <trkpt lat="43.87714" lon="3.02053">
        <ele>475.2</ele>
        <time>2020-08-24T11:25:12Z</time>
      </trkpt>
      <trkpt lat="43.87811" lon="3.02016">
        <ele>475.1</ele>
        <time>2020-08-24T11:25:32Z</time>
      </trkpt>
      <trkpt lat="43.87902" lon="3.01983">
        <ele>475.1</ele>
        <time>2020-08-24T11:25:52Z</time>
      </trkpt>
      <trkpt lat="43.87977" lon="3.019">
        <ele>474.5</ele>
        <time>2020-08-24T11:26:12Z</time>
      </trkpt>
      <trkpt lat="43.88032" lon="3.01789">
        <ele>474.2</ele>
        <time>2020-08-24T11:26:32Z</time>
      </trkpt>
      <trkpt lat="43.88075" lon="3.01658">
        <ele>473.8</ele>
        <time>2020-08-24T11:26:57Z</time>
      </trkpt>
      <trkpt lat="43.88087" lon="3.01514">
        <ele>473.3</ele>
        <time>2020-08-24T11:27:22Z</time>
      </trkpt>
      <trkpt lat="43.88068" lon="3.0138">
        <ele>473.1</ele>
        <time>2020-08-24T11:27:47Z</time>
      </trkpt>
      <trkpt lat="43.88045" lon="3.01258">
        <ele>473</ele>
        <time>2020-08-24T11:28:12Z</time>
      </trkpt>
      <trkpt lat="43.88011" lon="3.01125">
        <ele>473</ele>
        <time>2020-08-24T11:28:42Z</time>
      </trkpt>
      <trkpt lat="43.8798" lon="3.01005">
        <ele>472.9</ele>
        <time>2020-08-24T11:29:12Z</time>
      </trkpt>
      <trkpt lat="43.87958" lon="3.00862">
        <ele>472.6</ele>
        <time>2020-08-24T11:29:47Z</time>
      </trkpt>
      <trkpt lat="43.87942" lon="3.00731">
        <ele>473</ele>
        <time>2020-08-24T11:33:09Z</time>
      </trkpt>
      <trkpt lat="43.87914" lon="3.00603">
        <ele>472.9</ele>
        <time>2020-08-24T11:33:39Z</time>
      </trkpt>
      <trkpt lat="43.87905" lon="3.00474">
        <ele>472.5</ele>
        <time>2020-08-24T11:34:04Z</time>
      </trkpt>
      <trkpt lat="43.8793" lon="3.00337">
        <ele>472.4</ele>
        <time>2020-08-24T11:34:29Z</time>
      </trkpt>
      <trkpt lat="43.87987" lon="3.00235">
        <ele>472.2</ele>
        <time>2020-08-24T11:34:49Z</time>
      </trkpt>
      <trkpt lat="43.87998" lon="3.00085">
        <ele>471.3</ele>
        <time>2020-08-24T11:35:14Z</time>
      </trkpt>
      <trkpt lat="43.88031" lon="2.99938">
        <ele>471</ele>
        <time>2020-08-24T11:35:39Z</time>
      </trkpt>
      <trkpt lat="43.88026" lon="2.99794">
        <ele>469.9</ele>
        <time>2020-08-24T11:36:00Z</time>
      </trkpt>
      <trkpt lat="43.88005" lon="2.9966">
        <ele>468.8</ele>
        <time>2020-08-24T11:36:20Z</time>
      </trkpt>
      <trkpt lat="43.88007" lon="2.99507">
        <ele>467.6</ele>
        <time>2020-08-24T11:36:45Z</time>
      </trkpt>
      <trkpt lat="43.88016" lon="2.99376">
        <ele>466.7</ele>
        <time>2020-08-24T11:37:10Z</time>
      </trkpt>
      <trkpt lat="43.88033" lon="2.99239">
        <ele>465.6</ele>
        <time>2020-08-24T11:37:35Z</time>
      </trkpt>
      <trkpt lat="43.88087" lon="2.99118">
        <ele>465.5</ele>
        <time>2020-08-24T11:38:05Z</time>
      </trkpt>
      <trkpt lat="43.88128" lon="2.98994">
        <ele>465.6</ele>
        <time>2020-08-24T11:38:40Z</time>
      </trkpt>
      <trkpt lat="43.8802" lon="2.98995">
        <ele>465.1</ele>
        <time>2020-08-24T11:39:19Z</time>
      </trkpt>
      <trkpt lat="43.87917" lon="2.9898">
        <ele>463.7</ele>
        <time>2020-08-24T11:39:34Z</time>
      </trkpt>
      <trkpt lat="43.8786" lon="2.99077">
        <ele>462.3</ele>
        <time>2020-08-24T11:39:54Z</time>
      </trkpt>
      <trkpt lat="43.87789" lon="2.99183">
        <ele>461.5</ele>
        <time>2020-08-24T11:40:19Z</time>
      </trkpt>
      <trkpt lat="43.87722" lon="2.99266">
        <ele>462.4</ele>
        <time>2020-08-24T11:40:54Z</time>
      </trkpt>
      <trkpt lat="43.87667" lon="2.99365">
        <ele>462.9</ele>
        <time>2020-08-24T11:41:29Z</time>
      </trkpt>
      <trkpt lat="43.87631" lon="2.99482">
        <ele>462.8</ele>
        <time>2020-08-24T11:42:11Z</time>
      </trkpt>
      <trkpt lat="43.87604" lon="2.99604">
        <ele>464.6</ele>
        <time>2020-08-24T11:43:07Z</time>
      </trkpt>
      <trkpt lat="43.8751" lon="2.99611">
        <ele>469.1</ele>
        <time>2020-08-24T11:44:09Z</time>
      </trkpt>
      <trkpt lat="43.87416" lon="2.99577">
        <ele>471.9</ele>
        <time>2020-08-24T11:45:08Z</time>
      </trkpt>
      <trkpt lat="43.87326" lon="2.9957">
        <ele>474.2</ele>
        <time>2020-08-24T11:46:03Z</time>
      </trkpt>
      <trkpt lat="43.8725" lon="2.99488">
        <ele>477</ele>
        <time>2020-08-24T11:47:02Z</time>
      </trkpt>
      <trkpt lat="43.87158" lon="2.99438">
        <ele>480.1</ele>
        <time>2020-08-24T11:47:59Z</time>
      </trkpt>
      <trkpt lat="43.87063" lon="2.99398">
        <ele>483.7</ele>
        <time>2020-08-24T11:48:58Z</time>
      </trkpt>
      <trkpt lat="43.86997" lon="2.99299">
        <ele>487.1</ele>
        <time>2020-08-24T11:49:59Z</time>
      </trkpt>
      <trkpt lat="43.86978" lon="2.9917">
        <ele>490.4</ele>
        <time>2020-08-24T11:51:01Z</time>
      </trkpt>
      <trkpt lat="43.86985" lon="2.99043">
        <ele>495.5</ele>
        <time>2020-08-24T11:52:29Z</time>
      </trkpt>
      <trkpt lat="43.87041" lon="2.98946">
        <ele>498.6</ele>
        <time>2020-08-24T11:53:23Z</time>
      </trkpt>
      <trkpt lat="43.87104" lon="2.99049">
        <ele>515.1</ele>
        <time>2020-08-24T11:55:11Z</time>
      </trkpt>
      <trkpt lat="43.87124" lon="2.98918">
        <ele>538.8</ele>
        <time>2020-08-24T12:00:44Z</time>
      </trkpt>
      <trkpt lat="43.87102" lon="2.98784">
        <ele>543.8</ele>
        <time>2020-08-24T12:01:43Z</time>
      </trkpt>
      <trkpt lat="43.87048" lon="2.98677">
        <ele>546.5</ele>
        <time>2020-08-24T12:02:44Z</time>
      </trkpt>
      <trkpt lat="43.87029" lon="2.98551">
        <ele>548.2</ele>
        <time>2020-08-24T12:03:42Z</time>
      </trkpt>
      <trkpt lat="43.87064" lon="2.9843">
        <ele>550.6</ele>
        <time>2020-08-24T12:04:52Z</time>
      </trkpt>
      <trkpt lat="43.86966" lon="2.98405">
        <ele>556.9</ele>
        <time>2020-08-24T12:05:53Z</time>
      </trkpt>
      <trkpt lat="43.86869" lon="2.98401">
        <ele>562.5</ele>
        <time>2020-08-24T12:06:53Z</time>
      </trkpt>
      <trkpt lat="43.86809" lon="2.98301">
        <ele>568.8</ele>
        <time>2020-08-24T12:08:01Z</time>
      </trkpt>
      <trkpt lat="43.86731" lon="2.9822">
        <ele>576.3</ele>
        <time>2020-08-24T12:09:11Z</time>
      </trkpt>
      <trkpt lat="43.86653" lon="2.98146">
        <ele>583</ele>
        <time>2020-08-24T12:10:08Z</time>
      </trkpt>
      <trkpt lat="43.86561" lon="2.98106">
        <ele>589.6</ele>
        <time>2020-08-24T12:11:12Z</time>
      </trkpt>
      <trkpt lat="43.86503" lon="2.98003">
        <ele>597</ele>
        <time>2020-08-24T12:12:16Z</time>
      </trkpt>
      <trkpt lat="43.8643" lon="2.9792">
        <ele>604.2</ele>
        <time>2020-08-24T12:13:21Z</time>
      </trkpt>
      <trkpt lat="43.86347" lon="2.97841">
        <ele>609.1</ele>
        <time>2020-08-24T12:14:13Z</time>
      </trkpt>
      <trkpt lat="43.86281" lon="2.97743">
        <ele>614.6</ele>
        <time>2020-08-24T12:15:12Z</time>
      </trkpt>
      <trkpt lat="43.86236" lon="2.9762">
        <ele>619.8</ele>
        <time>2020-08-24T12:15:42Z</time>
      </trkpt>
      <trkpt lat="43.86245" lon="2.97466">
        <ele>621.1</ele>
        <time>2020-08-24T12:16:07Z</time>
      </trkpt>
      <trkpt lat="43.86235" lon="2.97317">
        <ele>621.9</ele>
        <time>2020-08-24T12:16:27Z</time>
      </trkpt>
      <trkpt lat="43.86124" lon="2.97311">
        <ele>622.5</ele>
        <time>2020-08-24T12:16:47Z</time>
      </trkpt>
      <trkpt lat="43.86055" lon="2.97196">
        <ele>623</ele>
        <time>2020-08-24T12:17:07Z</time>
      </trkpt>
      <trkpt lat="43.86064" lon="2.97053">
        <ele>623.5</ele>
        <time>2020-08-24T12:17:27Z</time>
      </trkpt>
      <trkpt lat="43.85976" lon="2.97002">
        <ele>623.3</ele>
        <time>2020-08-24T12:17:47Z</time>
      </trkpt>
      <trkpt lat="43.85973" lon="2.96868">
        <ele>623.8</ele>
        <time>2020-08-24T12:18:12Z</time>
      </trkpt>
      <trkpt lat="43.85865" lon="2.96886">
        <ele>624.1</ele>
        <time>2020-08-24T12:18:37Z</time>
      </trkpt>
      <trkpt lat="43.85783" lon="2.9681">
        <ele>624.8</ele>
        <time>2020-08-24T12:19:07Z</time>
      </trkpt>
      <trkpt lat="43.85753" lon="2.96672">
        <ele>624.7</ele>
        <time>2020-08-24T12:19:32Z</time>
      </trkpt>
      <trkpt lat="43.85683" lon="2.96577">
        <ele>624.4</ele>
        <time>2020-08-24T12:19:52Z</time>
      </trkpt>
      <trkpt lat="43.85586" lon="2.96645">
        <ele>624</ele>
        <time>2020-08-24T12:20:12Z</time>
      </trkpt>
      <trkpt lat="43.85492" lon="2.96732">
        <ele>622.8</ele>
        <time>2020-08-24T12:20:27Z</time>
      </trkpt>
      <trkpt lat="43.85426" lon="2.96876">
        <ele>622.9</ele>
        <time>2020-08-24T12:20:42Z</time>
      </trkpt>
      <trkpt lat="43.85341" lon="2.96946">
        <ele>621.9</ele>
        <time>2020-08-24T12:20:57Z</time>
      </trkpt>
      <trkpt lat="43.85289" lon="2.96832">
        <ele>619.3</ele>
        <time>2020-08-24T12:21:12Z</time>
      </trkpt>
      <trkpt lat="43.85251" lon="2.9669">
        <ele>617.6</ele>
        <time>2020-08-24T12:21:27Z</time>
      </trkpt>
      <trkpt lat="43.85127" lon="2.96681">
        <ele>614.8</ele>
        <time>2020-08-24T12:21:42Z</time>
      </trkpt>
      <trkpt lat="43.85037" lon="2.96791">
        <ele>608.7</ele>
        <time>2020-08-24T12:21:57Z</time>
      </trkpt>
      <trkpt lat="43.84933" lon="2.96864">
        <ele>603.2</ele>
        <time>2020-08-24T12:22:12Z</time>
      </trkpt>
      <trkpt lat="43.84799" lon="2.96867">
        <ele>597.9</ele>
        <time>2020-08-24T12:22:27Z</time>
      </trkpt>
      <trkpt lat="43.84709" lon="2.96858">
        <ele>591.2</ele>
        <time>2020-08-24T12:22:37Z</time>
      </trkpt>
      <trkpt lat="43.84582" lon="2.96818">
        <ele>587.8</ele>
        <time>2020-08-24T12:22:52Z</time>
      </trkpt>
      <trkpt lat="43.84462" lon="2.96886">
        <ele>574.5</ele>
        <time>2020-08-24T12:23:07Z</time>
      </trkpt>
      <trkpt lat="43.84388" lon="2.96962">
        <ele>566.1</ele>
        <time>2020-08-24T12:23:17Z</time>
      </trkpt>
      <trkpt lat="43.84296" lon="2.96931">
        <ele>560.8</ele>
        <time>2020-08-24T12:23:27Z</time>
      </trkpt>
      <trkpt lat="43.84201" lon="2.96874">
        <ele>556.1</ele>
        <time>2020-08-24T12:23:37Z</time>
      </trkpt>
      <trkpt lat="43.84091" lon="2.9688">
        <ele>543.6</ele>
        <time>2020-08-24T12:23:52Z</time>
      </trkpt>
      <trkpt lat="43.83996" lon="2.96849">
        <ele>539.5</ele>
        <time>2020-08-24T12:24:17Z</time>
      </trkpt>
      <trkpt lat="43.83912" lon="2.96893">
        <ele>536.9</ele>
        <time>2020-08-24T12:25:12Z</time>
      </trkpt>
      <trkpt lat="43.83818" lon="2.96916">
        <ele>535.3</ele>
        <time>2020-08-24T12:25:59Z</time>
      </trkpt>
      <trkpt lat="43.83737" lon="2.96836">
        <ele>531.2</ele>
        <time>2020-08-24T12:56:18Z</time>
      </trkpt>
      <trkpt lat="43.83661" lon="2.9675">
        <ele>530.3</ele>
        <time>2020-08-24T12:56:33Z</time>
      </trkpt>
      <trkpt lat="43.83596" lon="2.96636">
        <ele>529</ele>
        <time>2020-08-24T12:56:53Z</time>
      </trkpt>
      <trkpt lat="43.8352" lon="2.96532">
        <ele>525.3</ele>
        <time>2020-08-24T12:57:13Z</time>
      </trkpt>
      <trkpt lat="43.83466" lon="2.96417">
        <ele>521.3</ele>
        <time>2020-08-24T12:57:33Z</time>
      </trkpt>
      <trkpt lat="43.83487" lon="2.96289">
        <ele>520.5</ele>
        <time>2020-08-24T12:57:58Z</time>
      </trkpt>
      <trkpt lat="43.83478" lon="2.96157">
        <ele>521.9</ele>
        <time>2020-08-24T12:58:48Z</time>
      </trkpt>
      <trkpt lat="43.83426" lon="2.96009">
        <ele>522.2</ele>
        <time>2020-08-24T12:59:13Z</time>
      </trkpt>
      <trkpt lat="43.8338" lon="2.95893">
        <ele>521.2</ele>
        <time>2020-08-24T12:59:33Z</time>
      </trkpt>
    </trkseg>
  </trk>
</gpx>